Time;durP1;ratioP1;P1;durP2;ratioP2;P2;SDS_P1;SDS_P2;PMS_P1;PMS_P2;Temp;Humidity;BMP_temperature;BMP_pressure;BME280_temperature;BME280_humidity;BME280_pressure;Samples;Min_cycle;Max_cycle;Signal;HPM_P1;HPM_P2
2024/03/14 00:01:57;;;;;;;5.73;3.80;;;;;;;;;;5054967;28;20566;-90
2024/03/14 00:04:25;;;;;;;5.07;4.10;;;;;;;;;;5054335;28;20456;-89
2024/03/14 00:06:53;;;;;;;4.40;3.17;;;;;;;;;;5056069;28;20465;-88
2024/03/14 00:09:25;;;;;;;3.93;3.63;;;;;;;;;;5047493;28;20440;-89
2024/03/14 00:11:52;;;;;;;4.10;3.70;;;;;;;;;;5036947;28;20486;-87
2024/03/14 00:14:21;;;;;;;6.00;3.70;;;;;;;;;;5054018;28;20472;-84
2024/03/14 00:16:54;;;;;;;7.57;5.10;;;;;;;;;;5034982;28;21031;-87
2024/03/14 00:19:26;;;;;;;5.03;4.17;;;;;;;;;;5049026;28;20457;-89
2024/03/14 00:21:56;;;;;;;4.97;4.50;;;;;;;;;;5052511;28;20452;-87
2024/03/14 00:24:32;;;;;;;5.43;3.50;;;;;;;;;;5037097;28;20460;-86
2024/03/14 00:27:04;;;;;;;4.97;4.47;;;;;;;;;;5059539;28;20566;-89
2024/03/14 00:29:32;;;;;;;5.80;4.93;;;;;;;;;;5042063;28;21088;-87
2024/03/14 00:32:04;;;;;;;5.60;5.10;;;;;;;;;;5058657;28;20452;-88
2024/03/14 00:34:37;;;;;;;4.60;4.20;;;;;;;;;;5051774;28;20537;-90
2024/03/14 00:37:14;;;;;;;4.80;4.30;;;;;;;;;;5050211;28;20475;-88
2024/03/14 00:39:46;;;;;;;5.13;4.50;;;;;;;;;;5066810;28;20458;-87
2024/03/14 00:42:31;;;;;;;6.30;4.23;;;;;;;;;;5069090;28;20544;-86
2024/03/14 00:45:01;;;;;;;5.83;4.37;;;;;;;;;;5052004;28;20454;-88
2024/03/14 00:47:32;;;;;;;6.20;4.00;;;;;;;;;;5055756;28;20490;-88
2024/03/14 00:50:10;;;;;;;4.70;4.30;;;;;;;;;;5045857;28;20455;-86
2024/03/14 00:52:41;;;;;;;5.70;4.50;;;;;;;;;;5043478;28;21012;-85
2024/03/14 00:55:13;;;;;;;5.67;5.17;;;;;;;;;;5041404;28;20511;-86
2024/03/14 00:57:42;;;;;;;4.30;3.90;;;;;;;;;;5041921;28;21119;-87
2024/03/14 01:00:12;;;;;;;4.33;3.93;;;;;;;;;;5042722;28;20460;-89
2024/03/14 01:02:43;;;;;;;4.27;3.87;;;;;;;;;;5041800;28;20460;-88
2024/03/14 01:05:17;;;;;;;4.90;4.40;;;;;;;;;;5031128;28;20499;-89
2024/03/14 01:07:46;;;;;;;6.47;5.27;;;;;;;;;;5041329;28;20460;-86
2024/03/14 01:10:19;;;;;;;5.53;4.07;;;;;;;;;;5058056;28;20758;-87
2024/03/14 01:12:58;;;;;;;4.80;4.30;;;;;;;;;;5038407;28;20506;-86
2024/03/14 01:15:30;;;;;;;4.30;3.90;;;;;;;;;;5058276;28;21073;-87
2024/03/14 01:18:00;;;;;;;6.70;4.30;;;;;;;;;;5038703;28;20559;-87
2024/03/14 01:20:33;;;;;;;6.97;4.07;;;;;;;;;;5036757;28;20556;-87
2024/03/14 01:23:07;;;;;;;5.67;4.67;;;;;;;;;;5033685;28;20479;-86
2024/03/14 01:25:35;;;;;;;4.97;4.53;;;;;;;;;;5039779;28;20464;-87
2024/03/14 01:28:04;;;;;;;6.93;4.80;;;;;;;;;;5043765;28;20513;-84
2024/03/14 01:30:37;;;;;;;7.30;4.80;;;;;;;;;;5062264;28;20470;-87
2024/03/14 01:33:05;;;;;;;5.60;3.93;;;;;;;;;;5053874;28;20477;-88
2024/03/14 01:35:36;;;;;;;4.60;4.20;;;;;;;;;;5063905;28;20486;-89
2024/03/14 01:38:06;;;;;;;5.00;4.37;;;;;;;;;;5073971;28;20550;-88
2024/03/14 01:40:41;;;;;;;8.23;5.00;;;;;;;;;;4873978;28;132393;-89
2024/03/14 01:43:16;;;;;;;4.70;4.17;;;;;;;;;;4832555;28;3290268;-87
2024/03/14 01:45:46;;;;;;;5.30;4.57;;;;;;;;;;4986171;28;20236;-86
2024/03/14 01:48:22;;;;;;;8.03;5.67;;;;;;;;;;4994044;28;20443;-88
2024/03/14 01:50:50;;;;;;;7.73;4.03;;;;;;;;;;4944133;28;805060;-90
2024/03/14 01:53:27;;;;;;;4.40;4.00;;;;;;;;;;4977384;28;20439;-88
2024/03/14 01:56:01;;;;;;;5.97;5.20;;;;;;;;;;4975912;28;20521;-87
2024/03/14 01:58:35;;;;;;;6.23;5.37;;;;;;;;;;4989844;28;20451;-91
2024/03/14 02:01:06;;;;;;;6.37;4.27;;;;;;;;;;4986615;28;20451;-88
2024/03/14 02:03:41;;;;;;;5.27;3.90;;;;;;;;;;4984290;28;20491;-88
2024/03/14 02:06:22;;;;;;;5.97;5.10;;;;;;;;;;4973932;28;20544;-89
2024/03/14 02:08:52;;;;;;;5.73;5.10;;;;;;;;;;4989700;28;20450;-90
2024/03/14 02:11:21;;;;;;;5.47;4.97;;;;;;;;;;4972890;28;20876;-86
2024/03/14 02:13:50;;;;;;;6.13;4.60;;;;;;;;;;4974181;28;20448;-88
2024/03/14 02:16:26;;;;;;;4.10;3.80;;;;;;;;;;4975267;28;21241;-87
2024/03/14 02:19:07;;;;;;;4.30;3.90;;;;;;;;;;4993204;28;20465;-89
2024/03/14 02:21:38;;;;;;;4.37;3.97;;;;;;;;;;4988418;28;20459;-87
2024/03/14 02:24:11;;;;;;;3.87;3.43;;;;;;;;;;4975190;28;20450;-88
2024/03/14 02:26:43;;;;;;;5.10;4.23;;;;;;;;;;4974759;28;20502;-89
2024/03/14 02:29:12;;;;;;;4.80;4.40;;;;;;;;;;4989586;28;20471;-87
2024/03/14 02:31:55;;;;;;;4.90;4.40;;;;;;;;;;4976763;28;20431;-90
2024/03/14 02:34:25;;;;;;;4.93;4.03;;;;;;;;;;4991003;28;20457;-90
2024/03/14 02:36:56;;;;;;;4.73;4.33;;;;;;;;;;4993560;28;20511;-89
2024/03/14 02:39:30;;;;;;;4.67;4.20;;;;;;;;;;4978840;28;20477;-87
2024/03/14 02:42:00;;;;;;;4.90;4.17;;;;;;;;;;4990317;28;20470;-87
2024/03/14 02:44:38;;;;;;;4.60;4.20;;;;;;;;;;4995429;28;20522;-87
2024/03/14 02:47:08;;;;;;;6.50;4.77;;;;;;;;;;4994680;28;20523;-88
2024/03/14 02:49:38;;;;;;;4.33;3.93;;;;;;;;;;4991233;28;20520;-88
2024/03/14 02:52:15;;;;;;;4.37;3.80;;;;;;;;;;4991708;28;20448;-86
2024/03/14 02:54:53;;;;;;;5.30;4.70;;;;;;;;;;4989429;28;20448;-86
2024/03/14 02:57:24;;;;;;;4.30;3.93;;;;;;;;;;4977414;28;20487;-87
2024/03/14 03:00:14;;;;;;;6.37;4.60;;;;;;;;;;4976298;28;20444;-88
2024/03/14 03:02:44;;;;;;;6.37;4.33;;;;;;;;;;4980151;28;20447;-86
2024/03/14 03:05:15;;;;;;;7.00;4.70;;;;;;;;;;4990795;28;20593;-89
2024/03/14 03:07:57;;;;;;;5.90;5.37;;;;;;;;;;4992375;28;20456;-86
2024/03/14 03:10:32;;;;;;;4.20;3.80;;;;;;;;;;4968149;28;20458;-87
2024/03/14 03:13:01;;;;;;;4.63;4.13;;;;;;;;;;4986089;28;20495;-88
2024/03/14 03:15:32;;;;;;;5.00;4.60;;;;;;;;;;4988432;28;20465;-86
2024/03/14 03:18:10;;;;;;;5.33;3.87;;;;;;;;;;4987672;28;20447;-86
2024/03/14 03:20:41;;;;;;;4.63;4.20;;;;;;;;;;4974616;28;20997;-87
2024/03/14 03:23:12;;;;;;;4.80;3.77;;;;;;;;;;4977551;28;21048;-89
2024/03/14 03:25:46;;;;;;;5.80;4.87;;;;;;;;;;4977356;28;21170;-90
2024/03/14 03:28:14;;;;;;;7.30;4.33;;;;;;;;;;4977584;28;22117;-88
2024/03/14 03:30:44;;;;;;;6.33;4.23;;;;;;;;;;4976844;28;20475;-86
2024/03/14 03:33:19;;;;;;;5.33;4.13;;;;;;;;;;4960952;28;20459;-87
2024/03/14 03:36:04;;;;;;;5.40;4.00;;;;;;;;;;4960448;28;20503;-87
2024/03/14 03:38:38;;;;;;;7.80;5.00;;;;;;;;;;4976000;28;20491;-88
2024/03/14 03:41:14;;;;;;;6.47;4.57;;;;;;;;;;4981859;28;20474;-86
2024/03/14 03:43:43;;;;;;;5.17;4.57;;;;;;;;;;4985638;28;20474;-87
2024/03/14 03:46:25;;;;;;;6.50;4.20;;;;;;;;;;4974894;28;20845;-87
2024/03/14 03:48:56;;;;;;;6.30;4.77;;;;;;;;;;4977737;28;20461;-87
2024/03/14 03:51:40;;;;;;;4.53;3.50;;;;;;;;;;4974737;28;20496;-87
2024/03/14 03:54:18;;;;;;;4.33;3.93;;;;;;;;;;4976084;28;20460;-87
2024/03/14 03:56:54;;;;;;;5.30;4.70;;;;;;;;;;4973444;28;20512;-88
2024/03/14 03:59:35;;;;;;;5.43;4.93;;;;;;;;;;4976715;28;20491;-86
2024/03/14 04:02:11;;;;;;;4.43;4.03;;;;;;;;;;4976260;28;20932;-88
2024/03/14 04:04:41;;;;;;;4.93;4.53;;;;;;;;;;4961525;28;20494;-89
2024/03/14 04:07:11;;;;;;;4.13;3.70;;;;;;;;;;4962346;28;20472;-88
2024/03/14 04:09:52;;;;;;;5.47;4.17;;;;;;;;;;4978462;28;20474;-85
2024/03/14 04:12:50;;;;;;;5.80;4.20;;;;;;;;;;4978337;28;20471;-86
2024/03/14 04:15:33;;;;;;;7.93;4.33;;;;;;;;;;4978396;28;20483;-88
2024/03/14 04:18:05;;;;;;;4.10;3.70;;;;;;;;;;4984015;28;20474;-89
2024/03/14 04:20:37;;;;;;;4.53;4.13;;;;;;;;;;4974859;28;20439;-89
2024/03/14 04:23:08;;;;;;;12.37;5.53;;;;;;;;;;4995942;28;20463;-90
2024/03/14 04:25:39;;;;;;;5.43;4.20;;;;;;;;;;4993372;28;20448;-87
2024/03/14 04:28:07;;;;;;;7.00;4.90;;;;;;;;;;4987023;28;20464;-87
2024/03/14 04:30:38;;;;;;;5.30;3.63;;;;;;;;;;4965143;28;20483;-86
2024/03/14 04:33:08;;;;;;;3.70;3.40;;;;;;;;;;4978384;28;20461;-88
2024/03/14 04:35:37;;;;;;;5.30;4.20;;;;;;;;;;4961780;28;20511;-86
2024/03/14 04:38:07;;;;;;;5.27;4.20;;;;;;;;;;4989669;28;20513;-89
2024/03/14 04:40:38;;;;;;;6.30;4.80;;;;;;;;;;4976601;28;20479;-86
2024/03/14 04:43:08;;;;;;;6.90;4.70;;;;;;;;;;4974459;28;20474;-86
2024/03/14 04:45:35;;;;;;;7.53;4.50;;;;;;;;;;4972004;28;20456;-87
2024/03/14 04:48:07;;;;;;;6.10;4.50;;;;;;;;;;4975139;28;20448;-85
2024/03/14 04:50:40;;;;;;;4.60;4.10;;;;;;;;;;4974141;28;20447;-88
2024/03/14 04:53:09;;;;;;;4.73;4.30;;;;;;;;;;4973943;28;20562;-87
2024/03/14 04:55:39;;;;;;;4.87;4.47;;;;;;;;;;4975588;28;20519;-85
2024/03/14 04:58:07;;;;;;;6.77;4.50;;;;;;;;;;4981569;28;20576;-86
2024/03/14 05:00:36;;;;;;;5.77;4.77;;;;;;;;;;4984008;28;20459;-87
2024/03/14 05:03:06;;;;;;;7.10;4.30;;;;;;;;;;4981857;28;20439;-89
2024/03/14 05:05:37;;;;;;;6.33;5.10;;;;;;;;;;4989489;28;20462;-89
2024/03/14 05:08:04;;;;;;;9.10;4.87;;;;;;;;;;4991464;28;20460;-88
2024/03/14 05:10:34;;;;;;;8.60;5.13;;;;;;;;;;4988311;28;20529;-89
2024/03/14 05:13:02;;;;;;;6.63;4.90;;;;;;;;;;4982190;28;21763;-88
2024/03/14 05:15:31;;;;;;;6.10;4.40;;;;;;;;;;4978607;28;20454;-87
2024/03/14 05:18:02;;;;;;;4.27;3.80;;;;;;;;;;4977138;28;20498;-86
2024/03/14 05:20:33;;;;;;;4.47;4.03;;;;;;;;;;4960843;28;20870;-86
2024/03/14 05:23:05;;;;;;;5.10;4.40;;;;;;;;;;4975002;28;20460;-86
2024/03/14 05:25:35;;;;;;;5.33;4.83;;;;;;;;;;4976254;28;20451;-88
2024/03/14 05:28:06;;;;;;;8.20;4.60;;;;;;;;;;4972339;28;20474;-87
2024/03/14 05:30:42;;;;;;;8.40;5.10;;;;;;;;;;4958404;28;20458;-89
2024/03/14 05:33:11;;;;;;;6.53;5.73;;;;;;;;;;4971017;28;21557;-89
2024/03/14 05:35:40;;;;;;;5.50;4.80;;;;;;;;;;4973592;28;20459;-87
2024/03/14 05:38:08;;;;;;;5.20;4.73;;;;;;;;;;4973238;28;20487;-85
2024/03/14 05:40:36;;;;;;;6.30;4.77;;;;;;;;;;4956433;28;20475;-88
2024/03/14 05:43:04;;;;;;;5.17;4.10;;;;;;;;;;4955144;28;20526;-89
2024/03/14 05:45:35;;;;;;;9.07;4.20;;;;;;;;;;4961861;28;20461;-87
2024/03/14 05:48:11;;;;;;;5.60;5.10;;;;;;;;;;4973363;28;20444;-87
2024/03/14 05:50:42;;;;;;;7.60;4.60;;;;;;;;;;4975842;28;20501;-87
2024/03/14 05:53:12;;;;;;;5.60;5.00;;;;;;;;;;4975521;28;20971;-88
2024/03/14 05:55:43;;;;;;;6.13;4.40;;;;;;;;;;4958593;28;20510;-88
2024/03/14 05:58:14;;;;;;;10.60;5.27;;;;;;;;;;4972316;28;20590;-87
2024/03/14 06:00:44;;;;;;;5.93;4.20;;;;;;;;;;4980404;28;20491;-88
2024/03/14 06:03:16;;;;;;;7.50;4.70;;;;;;;;;;4980977;28;20459;-86
2024/03/14 06:05:44;;;;;;;6.77;4.40;;;;;;;;;;4986966;28;20472;-88
2024/03/14 06:08:12;;;;;;;6.97;4.43;;;;;;;;;;4973678;28;20450;-87
2024/03/14 06:10:41;;;;;;;5.27;4.77;;;;;;;;;;4986847;28;20466;-86
2024/03/14 06:13:11;;;;;;;5.77;4.40;;;;;;;;;;4981899;28;20885;-88
2024/03/14 06:15:44;;;;;;;5.63;5.13;;;;;;;;;;4982755;28;20999;-85
2024/03/14 06:18:17;;;;;;;5.37;4.40;;;;;;;;;;4979126;28;20571;-87
2024/03/14 06:20:55;;;;;;;7.30;4.50;;;;;;;;;;4978597;28;20460;-87
2024/03/14 06:23:28;;;;;;;8.43;5.53;;;;;;;;;;4977669;28;20455;-88
2024/03/14 06:25:56;;;;;;;7.00;5.00;;;;;;;;;;4978755;28;20857;-88
2024/03/14 06:28:28;;;;;;;5.03;4.27;;;;;;;;;;4979647;28;20491;-88
2024/03/14 06:30:59;;;;;;;7.90;5.37;;;;;;;;;;4980447;28;20467;-87
2024/03/14 06:33:40;;;;;;;6.13;4.50;;;;;;;;;;4981404;28;20464;-86
2024/03/14 06:36:13;;;;;;;12.20;5.47;;;;;;;;;;4983835;28;21266;-87
2024/03/14 06:41:43;;;;;;;10.93;5.60;;;;;;;;;;4977037;23;20590;-88
2024/03/14 06:44:24;;;;;;;7.00;5.23;;;;;;;;;;4982118;28;20694;-88
2024/03/14 06:47:22;;;;;;;6.73;5.33;;;;;;;;;;4994831;28;20475;-87
2024/03/14 06:50:12;;;;;;;7.20;5.43;;;;;;;;;;4975842;28;20822;-88
2024/03/14 06:53:05;;;;;;;7.27;6.00;;;;;;;;;;4988902;28;20467;-88
2024/03/14 06:55:47;;;;;;;9.80;6.43;;;;;;;;;;4980191;28;20439;-87
2024/03/14 06:58:21;;;;;;;7.40;6.13;;;;;;;;;;4988929;28;20531;-88
2024/03/14 07:00:50;;;;;;;9.00;6.30;;;;;;;;;;4988682;28;20451;-87
2024/03/14 07:03:22;;;;;;;6.63;5.40;;;;;;;;;;4984374;28;20456;-86
2024/03/14 07:05:57;;;;;;;6.53;5.87;;;;;;;;;;4986079;28;20488;-86
2024/03/14 07:08:28;;;;;;;6.67;5.90;;;;;;;;;;4991839;28;20468;-88
2024/03/14 07:10:56;;;;;;;9.27;7.13;;;;;;;;;;4993443;28;20480;-88
2024/03/14 07:13:25;;;;;;;9.27;5.80;;;;;;;;;;4976923;28;20448;-90
2024/03/14 07:15:56;;;;;;;6.90;6.20;;;;;;;;;;5182794;22;20505;-88
2024/03/14 07:18:28;;;;;;;6.93;6.23;;;;;;;;;;4981249;28;20497;-88
2024/03/14 07:21:17;;;;;;;10.60;6.50;;;;;;;;;;4967491;28;20452;-89
2024/03/14 07:24:06;;;;;;;9.63;7.03;;;;;;;;;;5011991;23;20527;-88
2024/03/14 07:26:43;;;;;;;8.97;5.73;;;;;;;;;;4965125;28;20584;-86
2024/03/14 07:29:39;;;;;;;9.30;6.77;;;;;;;;;;4944101;28;20457;-90
2024/03/14 07:40:32;;;;;;;7.13;5.53;;;;;;;;;;4967934;28;20468;-87
2024/03/14 07:43:26;;;;;;;6.03;5.47;;;;;;;;;;4973733;28;20500;-87
2024/03/14 07:46:02;;;;;;;6.40;5.20;;;;;;;;;;4959923;28;20552;-87
2024/03/14 07:48:41;;;;;;;6.80;5.20;;;;;;;;;;4977942;28;20472;-88
2024/03/14 07:51:57;;;;;;;5.00;4.50;;;;;;;;;;4929179;28;20455;-88
2024/03/14 07:54:44;;;;;;;5.53;4.77;;;;;;;;;;4917269;28;20993;-87
2024/03/14 07:57:15;;;;;;;4.97;4.50;;;;;;;;;;4929676;29;20469;-86
2024/03/14 08:00:15;;;;;;;5.60;4.47;;;;;;;;;;4928190;29;20470;-89
2024/03/14 08:03:01;;;;;;;5.20;4.80;;;;;;;;;;4918907;29;20486;-87
2024/03/14 08:05:50;;;;;;;6.07;4.43;;;;;;;;;;4912412;29;20462;-87
2024/03/14 08:08:18;;;;;;;4.37;3.97;;;;;;;;;;4940723;29;20462;-88
2024/03/14 08:10:59;;;;;;;4.80;4.33;;;;;;;;;;4980962;28;20473;-88
2024/03/14 08:13:47;;;;;;;5.30;4.80;;;;;;;;;;4976124;28;20463;-88
2024/03/14 08:16:19;;;;;;;5.73;5.00;;;;;;;;;;4965300;28;20515;-88
2024/03/14 08:18:51;;;;;;;5.50;5.00;;;;;;;;;;4977500;28;20485;-87
2024/03/14 08:21:29;;;;;;;8.17;4.77;;;;;;;;;;4979070;28;20460;-87
2024/03/14 08:24:09;;;;;;;6.40;4.73;;;;;;;;;;4987359;28;20537;-88
2024/03/14 08:26:40;;;;;;;4.93;4.50;;;;;;;;;;4973947;28;20470;-87
2024/03/14 08:29:10;;;;;;;5.87;4.97;;;;;;;;;;4981110;28;20454;-87
2024/03/14 08:31:41;;;;;;;4.43;4.00;;;;;;;;;;4968266;28;20512;-89
2024/03/14 08:34:11;;;;;;;7.67;5.00;;;;;;;;;;4977477;28;20453;-87
2024/03/14 08:36:41;;;;;;;5.20;4.63;;;;;;;;;;4983425;28;20508;-88
2024/03/14 08:39:12;;;;;;;5.27;4.43;;;;;;;;;;4979455;28;20488;-87
2024/03/14 08:41:46;;;;;;;5.67;5.17;;;;;;;;;;4976172;28;20574;-87
2024/03/14 08:44:32;;;;;;;4.77;4.30;;;;;;;;;;4967779;28;20452;-87
2024/03/14 08:52:32;;;;;;;4.23;3.93;;;;;;;;;;4938123;28;20571;-88
2024/03/14 08:55:23;;;;;;;5.20;4.70;;;;;;;;;;4936843;29;20460;-89
2024/03/14 08:58:00;;;;;;;5.23;4.70;;;;;;;;;;4951486;28;20482;-87
2024/03/14 09:00:33;;;;;;;5.77;5.00;;;;;;;;;;4946408;28;20469;-88
2024/03/14 09:03:06;;;;;;;4.43;4.03;;;;;;;;;;4921236;29;20506;-87
2024/03/14 09:05:42;;;;;;;5.17;4.67;;;;;;;;;;4933180;29;20474;-88
2024/03/14 09:08:18;;;;;;;6.83;4.83;;;;;;;;;;4932431;29;20508;-87
2024/03/14 09:10:55;;;;;;;6.10;4.40;;;;;;;;;;4948496;28;20494;-88
2024/03/14 09:13:34;;;;;;;4.70;4.03;;;;;;;;;;4948458;28;20468;-88
2024/03/14 09:16:08;;;;;;;4.33;3.80;;;;;;;;;;4934160;29;20477;-88
2024/03/14 09:18:42;;;;;;;4.83;3.60;;;;;;;;;;4938921;28;20499;-89
2024/03/14 09:21:10;;;;;;;4.10;3.47;;;;;;;;;;4953289;28;20469;-85
2024/03/14 09:23:49;;;;;;;4.83;3.70;;;;;;;;;;4935082;28;20698;-86
2024/03/14 09:26:21;;;;;;;5.00;4.50;;;;;;;;;;4919178;29;20498;-88
2024/03/14 09:28:53;;;;;;;4.50;3.90;;;;;;;;;;4927457;29;20462;-88
2024/03/14 09:31:34;;;;;;;4.20;3.80;;;;;;;;;;4928907;29;20468;-90
2024/03/14 09:34:11;;;;;;;4.30;3.83;;;;;;;;;;4927428;29;20469;-85
2024/03/14 09:36:43;;;;;;;5.73;3.40;;;;;;;;;;4916111;29;20478;-86
2024/03/14 09:39:35;;;;;;;3.63;3.30;;;;;;;;;;4918025;29;20514;-87
2024/03/14 09:42:12;;;;;;;4.27;3.40;;;;;;;;;;4933763;29;20497;-87
2024/03/14 09:44:43;;;;;;;4.30;3.70;;;;;;;;;;4921454;29;20495;-86
2024/03/14 09:47:27;;;;;;;4.40;3.97;;;;;;;;;;4929297;29;21028;-88
2024/03/14 09:49:57;;;;;;;5.03;3.53;;;;;;;;;;4958447;28;20967;-87
2024/03/14 09:52:36;;;;;;;3.63;3.10;;;;;;;;;;4922879;29;20501;-89
2024/03/14 09:55:22;;;;;;;5.20;3.73;;;;;;;;;;4935718;29;20478;-86
2024/03/14 09:57:55;;;;;;;5.73;3.53;;;;;;;;;;4951495;28;20501;-86
2024/03/14 10:00:40;;;;;;;5.90;3.60;;;;;;;;;;4947942;28;20462;-87
2024/03/14 10:03:16;;;;;;;4.67;3.60;;;;;;;;;;4926323;29;20450;-88
2024/03/14 10:05:54;;;;;;;4.00;3.40;;;;;;;;;;4935670;29;20489;-87
2024/03/14 10:08:28;;;;;;;6.20;3.83;;;;;;;;;;4948129;28;20478;-88
2024/03/14 10:10:58;;;;;;;5.57;3.83;;;;;;;;;;4944342;29;20450;-88
2024/03/14 10:13:35;;;;;;;4.47;3.70;;;;;;;;;;4946006;29;20435;-86
2024/03/14 10:16:15;;;;;;;5.33;4.10;;;;;;;;;;4928849;29;20474;-87
2024/03/14 10:18:49;;;;;;;5.70;4.00;;;;;;;;;;4949363;28;20580;-86
2024/03/14 10:21:19;;;;;;;5.50;3.83;;;;;;;;;;4934483;29;20458;-89
2024/03/14 10:23:51;;;;;;;5.27;3.90;;;;;;;;;;4948331;28;20442;-88
2024/03/14 10:26:24;;;;;;;5.90;4.17;;;;;;;;;;4501051;28;10624780;-88
2024/03/14 10:28:53;;;;;;;5.97;3.87;;;;;;;;;;4954451;28;20670;-87
2024/03/14 10:31:21;;;;;;;5.67;4.30;;;;;;;;;;4951586;28;20477;-87
2024/03/14 10:34:08;;;;;;;4.70;3.80;;;;;;;;;;4946211;28;20465;-88
2024/03/14 10:36:44;;;;;;;5.33;4.20;;;;;;;;;;4939483;29;20511;-88
2024/03/14 10:39:15;;;;;;;4.50;4.10;;;;;;;;;;4952619;28;20493;-86
2024/03/14 10:41:53;;;;;;;4.97;4.50;;;;;;;;;;4951688;28;20500;-86
2024/03/14 10:44:24;;;;;;;4.00;3.57;;;;;;;;;;4955568;28;20612;-88
2024/03/14 10:46:59;;;;;;;4.50;3.53;;;;;;;;;;4952891;28;20487;-88
2024/03/14 10:49:29;;;;;;;4.10;3.70;;;;;;;;;;4949360;28;20458;-89
2024/03/14 10:52:14;;;;;;;4.63;3.63;;;;;;;;;;4951976;28;20483;-88
2024/03/14 10:54:47;;;;;;;4.60;4.20;;;;;;;;;;4970532;28;20442;-89
2024/03/14 10:57:24;;;;;;;3.73;3.13;;;;;;;;;;4969731;28;20473;-88
2024/03/14 11:00:01;;;;;;;3.80;3.43;;;;;;;;;;4953683;28;20753;-89
2024/03/14 11:02:30;;;;;;;3.60;3.30;;;;;;;;;;4954919;28;20459;-87
2024/03/14 11:05:03;;;;;;;4.90;3.73;;;;;;;;;;4955955;28;20521;-89
2024/03/14 11:07:34;;;;;;;3.60;3.13;;;;;;;;;;4956082;28;20461;-87
2024/03/14 11:10:29;;;;;;;4.17;3.77;;;;;;;;;;4940099;29;20466;-88
2024/03/14 11:13:14;;;;;;;4.13;3.50;;;;;;;;;;4954617;28;20595;-87
2024/03/14 11:15:46;;;;;;;3.00;2.80;;;;;;;;;;4958390;28;20493;-89
2024/03/14 11:18:27;;;;;;;3.30;3.00;;;;;;;;;;4956776;28;20862;-87
2024/03/14 11:21:08;;;;;;;2.73;2.50;;;;;;;;;;4958916;28;20472;-88
2024/03/14 11:23:51;;;;;;;3.40;3.10;;;;;;;;;;4941265;28;20460;-88
2024/03/14 11:26:23;;;;;;;6.10;3.40;;;;;;;;;;4955551;28;20622;-87
2024/03/14 11:29:02;;;;;;;3.00;2.63;;;;;;;;;;4955767;28;20961;-89
2024/03/14 11:32:08;;;;;;;3.07;2.87;;;;;;;;;;4952116;28;20492;-87
2024/03/14 11:35:20;;;;;;;3.30;3.10;;;;;;;;;;4942088;28;20458;-87
2024/03/14 11:37:51;;;;;;;3.27;2.97;;;;;;;;;;4975727;28;20496;-88
2024/03/14 11:40:24;;;;;;;3.77;3.37;;;;;;;;;;4965532;28;20517;-89
2024/03/14 11:42:59;;;;;;;3.13;2.93;;;;;;;;;;4964525;28;20497;-87
2024/03/14 11:45:31;;;;;;;3.50;3.20;;;;;;;;;;4966500;28;20429;-89
2024/03/14 11:48:11;;;;;;;3.17;2.93;;;;;;;;;;4973128;28;20476;-87
2024/03/14 11:50:47;;;;;;;4.47;3.80;;;;;;;;;;4951286;28;20553;-87
2024/03/14 11:53:19;;;;;;;3.10;2.87;;;;;;;;;;4980857;28;20450;-90
2024/03/14 11:55:52;;;;;;;3.17;2.30;;;;;;;;;;4975845;28;20473;-88
2024/03/14 11:58:28;;;;;;;4.07;3.30;;;;;;;;;;4962189;28;20481;-89
2024/03/14 12:01:00;;;;;;;2.80;2.60;;;;;;;;;;4984727;28;20522;-87
2024/03/14 12:03:31;;;;;;;2.90;2.70;;;;;;;;;;4961136;28;20492;-88
2024/03/14 12:06:05;;;;;;;3.60;2.43;;;;;;;;;;4966923;28;20515;-89
2024/03/14 12:08:43;;;;;;;3.20;3.00;;;;;;;;;;4959756;28;22120;-89
2024/03/14 12:11:11;;;;;;;2.97;2.77;;;;;;;;;;4971762;28;20493;-89
2024/03/14 12:13:49;;;;;;;2.67;2.47;;;;;;;;;;4971456;28;20460;-88
2024/03/14 12:16:21;;;;;;;3.00;2.50;;;;;;;;;;4969132;28;20473;-88
2024/03/14 12:18:57;;;;;;;3.10;2.77;;;;;;;;;;4955955;28;20569;-87
2024/03/14 12:21:34;;;;;;;3.43;2.90;;;;;;;;;;4968613;28;20472;-89
2024/03/14 12:24:23;;;;;;;3.17;2.83;;;;;;;;;;4946916;28;20449;-87
2024/03/14 12:26:59;;;;;;;4.00;3.07;;;;;;;;;;4965292;28;20477;-86
2024/03/14 12:29:30;;;;;;;4.20;3.00;;;;;;;;;;4950970;28;20473;-87
2024/03/14 12:32:17;;;;;;;3.47;3.17;;;;;;;;;;4955944;28;20457;-87
2024/03/14 12:35:12;;;;;;;;;;;;;;;;;;;;;
2024/03/14 12:38:04;;;;;;;3.60;2.83;;;;;;;;;;4940714;29;20861;-90
2024/03/14 12:41:01;;;;;;;3.97;3.67;;;;;;;;;;4939329;29;20473;-88
2024/03/14 12:43:52;;;;;;;3.33;2.70;;;;;;;;;;4963434;28;20452;-89
2024/03/14 12:46:32;;;;;;;4.10;3.70;;;;;;;;;;4965216;28;20477;-87
2024/03/14 12:49:11;;;;;;;4.07;3.57;;;;;;;;;;4951579;28;20472;-88
2024/03/14 12:51:41;;;;;;;3.20;2.87;;;;;;;;;;4959253;28;20580;-86
2024/03/14 12:54:24;;;;;;;3.07;2.87;;;;;;;;;;4976164;28;21064;-89
2024/03/14 12:57:02;;;;;;;3.50;3.20;;;;;;;;;;4957725;28;20480;-88
2024/03/14 12:59:31;;;;;;;4.53;4.10;;;;;;;;;;4982772;28;20486;-89
2024/03/14 13:02:14;;;;;;;2.80;2.47;;;;;;;;;;4958852;28;20458;-89
2024/03/14 13:04:45;;;;;;;3.77;2.57;;;;;;;;;;4967437;28;20567;-88
2024/03/14 13:07:19;;;;;;;4.30;2.70;;;;;;;;;;4937589;29;20481;-87
2024/03/14 13:10:09;;;;;;;2.60;2.40;;;;;;;;;;4967778;28;20524;-85
2024/03/14 13:12:46;;;;;;;3.63;2.40;;;;;;;;;;4970303;28;20524;-90
2024/03/14 13:15:42;;;;;;;7.90;4.53;;;;;;;;;;4967807;28;20449;-89
2024/03/14 13:18:21;;;;;;;3.40;2.87;;;;;;;;;;4972431;28;20481;-87
2024/03/14 13:21:00;;;;;;;3.17;2.87;;;;;;;;;;4940369;29;20589;-89
2024/03/14 13:23:40;;;;;;;2.57;2.30;;;;;;;;;;4952518;28;20442;-90
2024/03/14 13:26:17;;;;;;;4.50;2.07;;;;;;;;;;4952783;28;20469;-88
2024/03/14 13:28:58;;;;;;;2.10;1.90;;;;;;;;;;4958358;28;20461;-90
2024/03/14 13:31:32;;;;;;;2.87;2.17;;;;;;;;;;4968381;28;20541;-89
2024/03/14 13:34:13;;;;;;;2.80;2.10;;;;;;;;;;4973917;28;20484;-91
2024/03/14 13:36:47;;;;;;;3.33;2.40;;;;;;;;;;4955192;28;21608;-88
2024/03/14 13:39:19;;;;;;;2.10;1.90;;;;;;;;;;4973045;28;20489;-88
2024/03/14 13:41:58;;;;;;;1.70;1.60;;;;;;;;;;4957768;28;20461;-87
2024/03/14 13:44:29;;;;;;;1.73;1.60;;;;;;;;;;4957593;28;20469;-90
2024/03/14 13:46:59;;;;;;;3.10;1.80;;;;;;;;;;4957079;28;20465;-88
2024/03/14 13:49:45;;;;;;;2.07;1.93;;;;;;;;;;4956186;28;20591;-88
2024/03/14 13:52:14;;;;;;;1.67;1.57;;;;;;;;;;4957153;28;20473;-90
2024/03/14 13:54:54;;;;;;;1.50;1.40;;;;;;;;;;4959995;28;20461;-89
2024/03/14 13:57:36;;;;;;;1.57;1.47;;;;;;;;;;4974727;28;20559;-91
2024/03/14 14:00:11;;;;;;;2.70;1.43;;;;;;;;;;4976592;28;20555;-90
2024/03/14 14:03:24;;;;;;;1.47;1.37;;;;;;;;;;4968230;28;20437;-90
2024/03/14 14:06:01;;;;;;;2.10;1.27;;;;;;;;;;4984489;28;20503;-89
2024/03/14 14:08:40;;;;;;;1.10;1.00;;;;;;;;;;4955233;28;20485;-88
2024/03/14 14:11:14;;;;;;;1.37;1.23;;;;;;;;;;4988506;28;20485;-89
2024/03/14 14:13:49;;;;;;;1.70;1.60;;;;;;;;;;4972251;28;20449;-90
2024/03/14 14:16:29;;;;;;;1.50;1.40;;;;;;;;;;4980694;28;20531;-90
2024/03/14 14:18:59;;;;;;;1.83;1.30;;;;;;;;;;4985667;28;20494;-89
2024/03/14 14:21:35;;;;;;;1.30;1.20;;;;;;;;;;4986527;28;20452;-91
2024/03/14 14:24:26;;;;;;;;;;;;;;;;;;;;;
2024/03/14 14:29:44;;;;;;;3.00;1.40;;;;;;;;;;5174873;23;20511;-88
2024/03/14 14:32:23;;;;;;;1.83;1.53;;;;;;;;;;5000412;28;21047;-90
2024/03/14 14:35:08;;;;;;;1.87;1.63;;;;;;;;;;4997025;28;20483;-88
2024/03/14 14:37:52;;;;;;;2.57;1.50;;;;;;;;;;4974242;28;20496;-86
2024/03/14 14:40:31;;;;;;;2.40;1.33;;;;;;;;;;4974522;28;20563;-88
2024/03/14 14:43:10;;;;;;;1.20;1.10;;;;;;;;;;4977959;28;20464;-87
2024/03/14 14:59:09;;;;;;;1.77;1.20;;;;;;;;;;4985136;28;20498;-90
2024/03/14 15:01:39;;;;;;;1.87;1.17;;;;;;;;;;4976761;28;20460;-88
2024/03/14 15:04:23;;;;;;;0.87;0.87;;;;;;;;;;4992795;28;20432;-88
2024/03/14 15:09:43;;;;;;;2.00;1.13;;;;;;;;;;4963560;28;20512;-88
2024/03/14 15:12:16;;;;;;;0.97;0.80;;;;;;;;;;4976882;28;20455;-88
2024/03/14 15:15:12;;;;;;;1.63;0.87;;;;;;;;;;4976081;28;20815;-88
2024/03/14 15:17:50;;;;;;;1.10;1.00;;;;;;;;;;4973538;28;20563;-87
2024/03/14 15:20:23;;;;;;;1.00;0.90;;;;;;;;;;4977933;28;20499;-90
2024/03/14 15:23:23;;;;;;;0.80;0.80;;;;;;;;;;4982573;28;20456;-88
2024/03/14 15:26:08;;;;;;;1.50;0.97;;;;;;;;;;4974128;28;21012;-89
2024/03/14 15:28:58;;;;;;;1.30;1.10;;;;;;;;;;4970499;28;20429;-89
2024/03/14 15:31:29;;;;;;;1.37;0.90;;;;;;;;;;4985171;28;20523;-90
2024/03/14 15:33:56;;;;;;;1.00;0.90;;;;;;;;;;4975826;28;20445;-88
2024/03/14 15:36:40;;;;;;;1.00;0.90;;;;;;;;;;4973768;28;20479;-89
2024/03/14 15:39:19;;;;;;;1.13;0.80;;;;;;;;;;4973008;28;20497;-89
2024/03/14 15:41:53;;;;;;;1.23;1.13;;;;;;;;;;4979029;28;20448;-89
2024/03/14 15:44:22;;;;;;;1.53;0.90;;;;;;;;;;4978952;28;20465;-86
2024/03/14 15:46:51;;;;;;;2.43;1.17;;;;;;;;;;4970074;28;20476;-89
2024/03/14 15:49:21;;;;;;;1.20;1.07;;;;;;;;;;4979894;28;20477;-88
2024/03/14 15:51:51;;;;;;;1.33;1.10;;;;;;;;;;4987521;28;20524;-89
2024/03/14 15:54:29;;;;;;;1.03;0.70;;;;;;;;;;4994965;28;20460;-90
2024/03/14 15:56:57;;;;;;;0.70;0.70;;;;;;;;;;4980398;28;21172;-86
2024/03/14 15:59:27;;;;;;;1.33;1.23;;;;;;;;;;4975809;28;20483;-87
2024/03/14 16:02:07;;;;;;;0.97;0.80;;;;;;;;;;4958240;28;21317;-87
2024/03/14 16:05:08;;;;;;;1.03;0.90;;;;;;;;;;4962296;28;20445;-87
2024/03/14 16:07:45;;;;;;;1.00;0.90;;;;;;;;;;4970731;28;20512;-88
2024/03/14 16:10:23;;;;;;;1.67;1.00;;;;;;;;;;4974055;28;20546;-88
2024/03/14 16:13:07;;;;;;;1.27;0.87;;;;;;;;;;4984369;28;20483;-89